sensor_id;sensor_type;location;lat;lon;timestamp;P1;durP1;ratioP1;P2;durP2;ratioP2
66575;SDS011;53428;47.686;16.584;2023-11-21T00:01:11;6.18;;;2.13;;
66575;SDS011;53428;47.686;16.584;2023-11-21T00:06:11;10.70;;;3.22;;
66575;SDS011;53428;47.686;16.584;2023-11-21T00:11:10;3.83;;;2.22;;
66575;SDS011;53428;47.686;16.584;2023-11-21T00:16:09;6.22;;;2.53;;
66575;SDS011;53428;47.686;16.584;2023-11-21T00:21:09;9.52;;;3.10;;
66575;SDS011;53428;47.686;16.584;2023-11-21T00:26:08;9.05;;;2.70;;
66575;SDS011;53428;47.686;16.584;2023-11-21T00:31:07;7.07;;;2.70;;
66575;SDS011;53428;47.686;16.584;2023-11-21T00:36:07;7.18;;;2.53;;
66575;SDS011;53428;47.686;16.584;2023-11-21T00:41:08;4.78;;;2.22;;
66575;SDS011;53428;47.686;16.584;2023-11-21T00:46:07;8.68;;;2.40;;
66575;SDS011;53428;47.686;16.584;2023-11-21T00:51:07;5.07;;;2.67;;
66575;SDS011;53428;47.686;16.584;2023-11-21T00:56:06;10.25;;;2.28;;
66575;SDS011;53428;47.686;16.584;2023-11-21T01:01:07;6.10;;;2.30;;
66575;SDS011;53428;47.686;16.584;2023-11-21T01:06:07;4.82;;;2.03;;
66575;SDS011;53428;47.686;16.584;2023-11-21T01:11:07;7.63;;;2.58;;
66575;SDS011;53428;47.686;16.584;2023-11-21T01:16:07;40.55;;;11.57;;
66575;SDS011;53428;47.686;16.584;2023-11-21T01:21:07;34.20;;;11.40;;
66575;SDS011;53428;47.686;16.584;2023-11-21T01:26:07;45.75;;;11.55;;
66575;SDS011;53428;47.686;16.584;2023-11-21T01:31:07;29.20;;;8.85;;
66575;SDS011;53428;47.686;16.584;2023-11-21T01:36:06;33.22;;;11.73;;
66575;SDS011;53428;47.686;16.584;2023-11-21T01:41:06;26.00;;;9.07;;
66575;SDS011;53428;47.686;16.584;2023-11-21T01:46:06;12.13;;;4.18;;
66575;SDS011;53428;47.686;16.584;2023-11-21T01:51:05;5.28;;;2.75;;
66575;SDS011;53428;47.686;16.584;2023-11-21T01:56:05;6.07;;;2.50;;
66575;SDS011;53428;47.686;16.584;2023-11-21T02:01:06;7.93;;;2.10;;
66575;SDS011;53428;47.686;16.584;2023-11-21T02:06:06;6.75;;;2.10;;
66575;SDS011;53428;47.686;16.584;2023-11-21T02:11:07;7.18;;;2.20;;
66575;SDS011;53428;47.686;16.584;2023-11-21T02:16:09;2.65;;;1.40;;
66575;SDS011;53428;47.686;16.584;2023-11-21T02:21:10;3.65;;;2.03;;
66575;SDS011;53428;47.686;16.584;2023-11-21T02:26:10;7.20;;;2.70;;
66575;SDS011;53428;47.686;16.584;2023-11-21T02:31:09;6.35;;;2.28;;
66575;SDS011;53428;47.686;16.584;2023-11-21T02:36:09;6.32;;;2.85;;
66575;SDS011;53428;47.686;16.584;2023-11-21T02:41:08;7.35;;;2.08;;
66575;SDS011;53428;47.686;16.584;2023-11-21T02:46:08;7.35;;;2.75;;
66575;SDS011;53428;47.686;16.584;2023-11-21T02:51:07;7.22;;;2.40;;
66575;SDS011;53428;47.686;16.584;2023-11-21T02:56:07;5.13;;;1.98;;
66575;SDS011;53428;47.686;16.584;2023-11-21T03:01:06;9.55;;;2.72;;
66575;SDS011;53428;47.686;16.584;2023-11-21T03:06:07;4.55;;;2.00;;
66575;SDS011;53428;47.686;16.584;2023-11-21T03:11:07;5.45;;;2.17;;
66575;SDS011;53428;47.686;16.584;2023-11-21T03:16:10;5.00;;;2.83;;
66575;SDS011;53428;47.686;16.584;2023-11-21T03:21:10;3.53;;;1.90;;
66575;SDS011;53428;47.686;16.584;2023-11-21T03:26:11;4.78;;;2.08;;
66575;SDS011;53428;47.686;16.584;2023-11-21T03:31:11;5.45;;;1.65;;
66575;SDS011;53428;47.686;16.584;2023-11-21T03:36:11;7.35;;;2.58;;
66575;SDS011;53428;47.686;16.584;2023-11-21T03:41:10;8.35;;;2.00;;
66575;SDS011;53428;47.686;16.584;2023-11-21T03:46:09;3.97;;;2.03;;
66575;SDS011;53428;47.686;16.584;2023-11-21T03:51:09;7.18;;;1.92;;
66575;SDS011;53428;47.686;16.584;2023-11-21T03:56:08;7.75;;;2.63;;
66575;SDS011;53428;47.686;16.584;2023-11-21T04:01:08;6.95;;;3.30;;
66575;SDS011;53428;47.686;16.584;2023-11-21T04:06:07;5.00;;;2.42;;
66575;SDS011;53428;47.686;16.584;2023-11-21T04:11:07;5.43;;;3.03;;
66575;SDS011;53428;47.686;16.584;2023-11-21T04:16:07;4.95;;;2.63;;
66575;SDS011;53428;47.686;16.584;2023-11-21T04:21:06;9.57;;;2.97;;
66575;SDS011;53428;47.686;16.584;2023-11-21T04:26:07;12.77;;;2.85;;
66575;SDS011;53428;47.686;16.584;2023-11-21T04:31:06;4.43;;;2.03;;
66575;SDS011;53428;47.686;16.584;2023-11-21T04:36:06;5.45;;;2.80;;
66575;SDS011;53428;47.686;16.584;2023-11-21T04:41:06;8.40;;;2.50;;
66575;SDS011;53428;47.686;16.584;2023-11-21T04:46:05;11.18;;;2.53;;
66575;SDS011;53428;47.686;16.584;2023-11-21T04:51:05;15.35;;;2.63;;
66575;SDS011;53428;47.686;16.584;2023-11-21T04:56:05;9.60;;;3.08;;
66575;SDS011;53428;47.686;16.584;2023-11-21T05:01:05;3.92;;;1.73;;
66575;SDS011;53428;47.686;16.584;2023-11-21T05:06:06;14.75;;;2.15;;
66575;SDS011;53428;47.686;16.584;2023-11-21T05:11:05;4.93;;;1.70;;
66575;SDS011;53428;47.686;16.584;2023-11-21T05:16:09;7.97;;;3.03;;
66575;SDS011;53428;47.686;16.584;2023-11-21T05:21:09;8.23;;;2.63;;
66575;SDS011;53428;47.686;16.584;2023-11-21T05:26:08;6.50;;;2.15;;
66575;SDS011;53428;47.686;16.584;2023-11-21T05:31:07;13.57;;;3.72;;
66575;SDS011;53428;47.686;16.584;2023-11-21T05:36:07;8.88;;;2.72;;
66575;SDS011;53428;47.686;16.584;2023-11-21T05:41:07;8.60;;;3.17;;
66575;SDS011;53428;47.686;16.584;2023-11-21T05:46:09;8.80;;;3.13;;
66575;SDS011;53428;47.686;16.584;2023-11-21T05:51:09;13.02;;;3.63;;
66575;SDS011;53428;47.686;16.584;2023-11-21T05:56:09;15.35;;;3.80;;
66575;SDS011;53428;47.686;16.584;2023-11-21T06:01:08;3.50;;;2.17;;
66575;SDS011;53428;47.686;16.584;2023-11-21T06:06:08;10.55;;;2.78;;
66575;SDS011;53428;47.686;16.584;2023-11-21T06:11:07;6.93;;;3.45;;
66575;SDS011;53428;47.686;16.584;2023-11-21T06:16:06;10.77;;;4.25;;
66575;SDS011;53428;47.686;16.584;2023-11-21T06:21:08;10.77;;;4.00;;
66575;SDS011;53428;47.686;16.584;2023-11-21T06:26:17;11.25;;;4.00;;
66575;SDS011;53428;47.686;16.584;2023-11-21T06:31:17;12.32;;;4.90;;
66575;SDS011;53428;47.686;16.584;2023-11-21T06:36:16;15.77;;;4.68;;
66575;SDS011;53428;47.686;16.584;2023-11-21T06:41:16;9.45;;;4.75;;
66575;SDS011;53428;47.686;16.584;2023-11-21T06:46:15;37.38;;;13.90;;
66575;SDS011;53428;47.686;16.584;2023-11-21T06:51:14;15.93;;;6.85;;
66575;SDS011;53428;47.686;16.584;2023-11-21T06:56:17;16.55;;;7.13;;
66575;SDS011;53428;47.686;16.584;2023-11-21T07:01:17;20.73;;;8.90;;
66575;SDS011;53428;47.686;16.584;2023-11-21T07:06:16;17.20;;;8.52;;
66575;SDS011;53428;47.686;16.584;2023-11-21T07:11:15;23.52;;;11.13;;
66575;SDS011;53428;47.686;16.584;2023-11-21T07:16:15;27.98;;;13.40;;
66575;SDS011;53428;47.686;16.584;2023-11-21T07:21:15;20.23;;;10.93;;
66575;SDS011;53428;47.686;16.584;2023-11-21T07:26:14;27.05;;;9.35;;
66575;SDS011;53428;47.686;16.584;2023-11-21T07:31:14;17.85;;;7.97;;
66575;SDS011;53428;47.686;16.584;2023-11-21T07:36:14;33.97;;;11.38;;
66575;SDS011;53428;47.686;16.584;2023-11-21T07:41:14;18.67;;;9.48;;
66575;SDS011;53428;47.686;16.584;2023-11-21T07:46:16;22.45;;;10.13;;
66575;SDS011;53428;47.686;16.584;2023-11-21T07:51:17;23.75;;;10.85;;
66575;SDS011;53428;47.686;16.584;2023-11-21T07:56:21;38.28;;;11.70;;
66575;SDS011;53428;47.686;16.584;2023-11-21T08:01:21;26.77;;;12.52;;
66575;SDS011;53428;47.686;16.584;2023-11-21T08:06:21;27.10;;;10.95;;
66575;SDS011;53428;47.686;16.584;2023-11-21T08:11:21;25.45;;;10.18;;
66575;SDS011;53428;47.686;16.584;2023-11-21T08:16:20;23.02;;;9.98;;
66575;SDS011;53428;47.686;16.584;2023-11-21T08:21:19;28.15;;;10.70;;
66575;SDS011;53428;47.686;16.584;2023-11-21T08:26:19;21.45;;;11.48;;
66575;SDS011;53428;47.686;16.584;2023-11-21T08:31:26;27.42;;;9.18;;
66575;SDS011;53428;47.686;16.584;2023-11-21T08:36:25;19.02;;;8.20;;
66575;SDS011;53428;47.686;16.584;2023-11-21T08:41:25;28.88;;;9.80;;
66575;SDS011;53428;47.686;16.584;2023-11-21T08:46:26;32.88;;;9.43;;
66575;SDS011;53428;47.686;16.584;2023-11-21T08:51:26;21.33;;;9.73;;
66575;SDS011;53428;47.686;16.584;2023-11-21T08:56:25;29.02;;;11.88;;
66575;SDS011;53428;47.686;16.584;2023-11-21T09:01:25;41.65;;;10.55;;
66575;SDS011;53428;47.686;16.584;2023-11-21T09:06:24;30.02;;;10.85;;
66575;SDS011;53428;47.686;16.584;2023-11-21T09:11:23;20.65;;;9.00;;
66575;SDS011;53428;47.686;16.584;2023-11-21T09:16:24;15.43;;;8.43;;
66575;SDS011;53428;47.686;16.584;2023-11-21T09:21:23;21.17;;;6.47;;
66575;SDS011;53428;47.686;16.584;2023-11-21T09:26:24;24.25;;;9.00;;
66575;SDS011;53428;47.686;16.584;2023-11-21T09:31:23;13.27;;;7.03;;
66575;SDS011;53428;47.686;16.584;2023-11-21T09:36:23;25.60;;;7.78;;
66575;SDS011;53428;47.686;16.584;2023-11-21T09:41:32;21.00;;;7.00;;
66575;SDS011;53428;47.686;16.584;2023-11-21T09:46:39;16.27;;;5.80;;
66575;SDS011;53428;47.686;16.584;2023-11-21T09:51:44;15.70;;;4.82;;
66575;SDS011;53428;47.686;16.584;2023-11-21T09:56:47;13.65;;;7.30;;
66575;SDS011;53428;47.686;16.584;2023-11-21T10:01:47;22.33;;;7.28;;
66575;SDS011;53428;47.686;16.584;2023-11-21T10:06:46;16.42;;;6.38;;
66575;SDS011;53428;47.686;16.584;2023-11-21T10:11:48;12.88;;;4.53;;
66575;SDS011;53428;47.686;16.584;2023-11-21T10:16:49;7.57;;;3.28;;
66575;SDS011;53428;47.686;16.584;2023-11-21T10:21:50;8.27;;;4.13;;
66575;SDS011;53428;47.686;16.584;2023-11-21T10:26:50;11.25;;;3.33;;
66575;SDS011;53428;47.686;16.584;2023-11-21T10:31:51;13.27;;;3.88;;
66575;SDS011;53428;47.686;16.584;2023-11-21T10:36:51;7.55;;;3.20;;
66575;SDS011;53428;47.686;16.584;2023-11-21T10:41:51;9.95;;;3.42;;
66575;SDS011;53428;47.686;16.584;2023-11-21T10:46:50;7.22;;;2.42;;
66575;SDS011;53428;47.686;16.584;2023-11-21T10:51:51;7.95;;;1.98;;
66575;SDS011;53428;47.686;16.584;2023-11-21T10:56:59;9.20;;;2.42;;
66575;SDS011;53428;47.686;16.584;2023-11-21T11:02:00;5.13;;;2.58;;
66575;SDS011;53428;47.686;16.584;2023-11-21T11:07:02;5.50;;;2.60;;
66575;SDS011;53428;47.686;16.584;2023-11-21T11:12:04;6.25;;;2.38;;
66575;SDS011;53428;47.686;16.584;2023-11-21T11:17:05;9.00;;;3.10;;
66575;SDS011;53428;47.686;16.584;2023-11-21T11:22:17;7.10;;;3.55;;
66575;SDS011;53428;47.686;16.584;2023-11-21T11:27:37;5.22;;;2.70;;
66575;SDS011;53428;47.686;16.584;2023-11-21T11:38:26;4.00;;;1.00;;
66575;SDS011;53428;47.686;16.584;2023-11-21T11:43:30;6.35;;;1.15;;
66575;SDS011;53428;47.686;16.584;2023-11-21T11:48:34;2.03;;;0.73;;
66575;SDS011;53428;47.686;16.584;2023-11-21T11:53:37;1.60;;;0.65;;
66575;SDS011;53428;47.686;16.584;2023-11-21T11:58:38;1.20;;;0.80;;
66575;SDS011;53428;47.686;16.584;2023-11-21T12:03:37;0.90;;;0.68;;
66575;SDS011;53428;47.686;16.584;2023-11-21T12:08:37;4.00;;;0.90;;
66575;SDS011;53428;47.686;16.584;2023-11-21T12:13:37;1.50;;;0.60;;
66575;SDS011;53428;47.686;16.584;2023-11-21T12:18:37;3.88;;;1.00;;
66575;SDS011;53428;47.686;16.584;2023-11-21T12:23:37;8.27;;;3.10;;
66575;SDS011;53428;47.686;16.584;2023-11-21T12:28:36;6.38;;;1.42;;
66575;SDS011;53428;47.686;16.584;2023-11-21T12:33:35;2.70;;;1.50;;
66575;SDS011;53428;47.686;16.584;2023-11-21T12:38:35;4.18;;;1.25;;
66575;SDS011;53428;47.686;16.584;2023-11-21T12:43:34;5.75;;;1.25;;
66575;SDS011;53428;47.686;16.584;2023-11-21T12:48:38;2.22;;;1.48;;
66575;SDS011;53428;47.686;16.584;2023-11-21T12:53:41;3.58;;;1.90;;
66575;SDS011;53428;47.686;16.584;2023-11-21T12:58:43;7.03;;;2.17;;
66575;SDS011;53428;47.686;16.584;2023-11-21T13:03:47;2.25;;;1.40;;
66575;SDS011;53428;47.686;16.584;2023-11-21T13:08:47;2.83;;;0.82;;
66575;SDS011;53428;47.686;16.584;2023-11-21T13:13:47;4.82;;;0.77;;
66575;SDS011;53428;47.686;16.584;2023-11-21T13:18:51;6.53;;;1.35;;
66575;SDS011;53428;47.686;16.584;2023-11-21T13:23:51;3.65;;;1.77;;
66575;SDS011;53428;47.686;16.584;2023-11-21T13:28:52;10.10;;;2.72;;
66575;SDS011;53428;47.686;16.584;2023-11-21T13:33:52;5.35;;;1.83;;
66575;SDS011;53428;47.686;16.584;2023-11-21T13:38:54;5.65;;;2.20;;
66575;SDS011;53428;47.686;16.584;2023-11-21T13:43:53;7.80;;;3.25;;
66575;SDS011;53428;47.686;16.584;2023-11-21T13:49:02;7.85;;;2.97;;
66575;SDS011;53428;47.686;16.584;2023-11-21T13:54:02;16.88;;;6.43;;
66575;SDS011;53428;47.686;16.584;2023-11-21T13:59:04;12.50;;;4.80;;
66575;SDS011;53428;47.686;16.584;2023-11-21T14:04:12;15.75;;;6.13;;
66575;SDS011;53428;47.686;16.584;2023-11-21T14:09:18;12.40;;;5.40;;
66575;SDS011;53428;47.686;16.584;2023-11-21T14:14:23;24.83;;;11.00;;
66575;SDS011;53428;47.686;16.584;2023-11-21T14:19:24;20.38;;;6.72;;
66575;SDS011;53428;47.686;16.584;2023-11-21T14:24:30;22.95;;;9.38;;
66575;SDS011;53428;47.686;16.584;2023-11-21T14:29:31;19.67;;;6.38;;
66575;SDS011;53428;47.686;16.584;2023-11-21T14:34:34;86.93;;;23.17;;
66575;SDS011;53428;47.686;16.584;2023-11-21T14:39:33;11.20;;;2.80;;
66575;SDS011;53428;47.686;16.584;2023-11-21T14:44:39;29.25;;;8.70;;
66575;SDS011;53428;47.686;16.584;2023-11-21T14:49:43;22.70;;;8.13;;
66575;SDS011;53428;47.686;16.584;2023-11-21T14:54:52;30.90;;;10.98;;
66575;SDS011;53428;47.686;16.584;2023-11-21T15:00:11;5.70;;;2.55;;
66575;SDS011;53428;47.686;16.584;2023-11-21T15:05:30;9.57;;;2.95;;
66575;SDS011;53428;47.686;16.584;2023-11-21T15:10:29;8.18;;;3.90;;
66575;SDS011;53428;47.686;16.584;2023-11-21T15:15:44;8.48;;;3.55;;
66575;SDS011;53428;47.686;16.584;2023-11-21T15:20:44;8.23;;;5.10;;
66575;SDS011;53428;47.686;16.584;2023-11-21T15:25:43;8.45;;;3.00;;
66575;SDS011;53428;47.686;16.584;2023-11-21T15:30:43;4.93;;;2.95;;
66575;SDS011;53428;47.686;16.584;2023-11-21T15:35:45;8.00;;;2.45;;
66575;SDS011;53428;47.686;16.584;2023-11-21T15:40:44;1.40;;;1.30;;
66575;SDS011;53428;47.686;16.584;2023-11-21T15:45:44;6.40;;;1.98;;
66575;SDS011;53428;47.686;16.584;2023-11-21T15:50:44;2.58;;;1.80;;
66575;SDS011;53428;47.686;16.584;2023-11-21T15:55:43;3.83;;;1.65;;
66575;SDS011;53428;47.686;16.584;2023-11-21T16:00:42;5.47;;;2.40;;
66575;SDS011;53428;47.686;16.584;2023-11-21T16:05:41;4.47;;;1.83;;
66575;SDS011;53428;47.686;16.584;2023-11-21T16:10:40;5.03;;;1.92;;
66575;SDS011;53428;47.686;16.584;2023-11-21T16:15:39;3.78;;;2.03;;
66575;SDS011;53428;47.686;16.584;2023-11-21T16:20:41;2.70;;;1.75;;
66575;SDS011;53428;47.686;16.584;2023-11-21T16:25:40;5.68;;;3.28;;
66575;SDS011;53428;47.686;16.584;2023-11-21T16:30:40;9.93;;;2.80;;
66575;SDS011;53428;47.686;16.584;2023-11-21T16:35:39;5.30;;;2.72;;
66575;SDS011;53428;47.686;16.584;2023-11-21T16:40:40;4.45;;;2.90;;
66575;SDS011;53428;47.686;16.584;2023-11-21T16:45:39;14.00;;;4.82;;
66575;SDS011;53428;47.686;16.584;2023-11-21T16:50:39;7.95;;;2.88;;
66575;SDS011;53428;47.686;16.584;2023-11-21T16:55:42;6.65;;;3.30;;
66575;SDS011;53428;47.686;16.584;2023-11-21T17:00:41;6.85;;;3.28;;
66575;SDS011;53428;47.686;16.584;2023-11-21T17:05:41;5.80;;;2.50;;
66575;SDS011;53428;47.686;16.584;2023-11-21T17:10:40;6.32;;;2.75;;
66575;SDS011;53428;47.686;16.584;2023-11-21T17:15:42;4.55;;;2.92;;
66575;SDS011;53428;47.686;16.584;2023-11-21T17:20:42;3.40;;;2.47;;
66575;SDS011;53428;47.686;16.584;2023-11-21T17:25:42;7.38;;;2.97;;
66575;SDS011;53428;47.686;16.584;2023-11-21T17:30:41;9.30;;;3.10;;
66575;SDS011;53428;47.686;16.584;2023-11-21T17:35:41;9.32;;;3.00;;
66575;SDS011;53428;47.686;16.584;2023-11-21T17:40:41;9.70;;;3.33;;
66575;SDS011;53428;47.686;16.584;2023-11-21T17:45:40;5.00;;;2.75;;
66575;SDS011;53428;47.686;16.584;2023-11-21T17:50:39;7.13;;;2.75;;
66575;SDS011;53428;47.686;16.584;2023-11-21T17:55:39;5.00;;;3.35;;
66575;SDS011;53428;47.686;16.584;2023-11-21T18:00:38;4.10;;;2.78;;
66575;SDS011;53428;47.686;16.584;2023-11-21T18:05:37;5.60;;;3.42;;
66575;SDS011;53428;47.686;16.584;2023-11-21T18:10:37;7.68;;;3.78;;
66575;SDS011;53428;47.686;16.584;2023-11-21T18:15:36;5.40;;;3.22;;
66575;SDS011;53428;47.686;16.584;2023-11-21T18:20:37;5.40;;;3.33;;
66575;SDS011;53428;47.686;16.584;2023-11-21T18:25:36;10.50;;;4.10;;
66575;SDS011;53428;47.686;16.584;2023-11-21T18:30:37;5.32;;;3.63;;
66575;SDS011;53428;47.686;16.584;2023-11-21T18:35:36;12.20;;;4.07;;
66575;SDS011;53428;47.686;16.584;2023-11-21T18:40:35;10.32;;;4.88;;
66575;SDS011;53428;47.686;16.584;2023-11-21T18:45:35;7.07;;;4.40;;
66575;SDS011;53428;47.686;16.584;2023-11-21T18:50:34;10.35;;;5.22;;
66575;SDS011;53428;47.686;16.584;2023-11-21T18:55:34;10.13;;;5.70;;
66575;SDS011;53428;47.686;16.584;2023-11-21T19:00:34;9.18;;;4.88;;
66575;SDS011;53428;47.686;16.584;2023-11-21T19:05:33;12.68;;;5.20;;
66575;SDS011;53428;47.686;16.584;2023-11-21T19:10:32;5.80;;;4.38;;
66575;SDS011;53428;47.686;16.584;2023-11-21T19:15:32;11.80;;;4.72;;
66575;SDS011;53428;47.686;16.584;2023-11-21T19:20:31;7.60;;;4.97;;
66575;SDS011;53428;47.686;16.584;2023-11-21T19:25:31;7.15;;;4.47;;
66575;SDS011;53428;47.686;16.584;2023-11-21T19:30:32;9.13;;;5.53;;
66575;SDS011;53428;47.686;16.584;2023-11-21T19:35:31;7.72;;;4.80;;
66575;SDS011;53428;47.686;16.584;2023-11-21T19:40:34;8.23;;;4.85;;
66575;SDS011;53428;47.686;16.584;2023-11-21T19:45:34;10.77;;;4.90;;
66575;SDS011;53428;47.686;16.584;2023-11-21T19:50:33;11.15;;;4.32;;
66575;SDS011;53428;47.686;16.584;2023-11-21T19:55:33;8.65;;;4.72;;
66575;SDS011;53428;47.686;16.584;2023-11-21T20:00:33;7.57;;;5.25;;
66575;SDS011;53428;47.686;16.584;2023-11-21T20:05:32;15.68;;;6.38;;
66575;SDS011;53428;47.686;16.584;2023-11-21T20:10:33;8.32;;;5.68;;
66575;SDS011;53428;47.686;16.584;2023-11-21T20:15:33;13.43;;;7.05;;
66575;SDS011;53428;47.686;16.584;2023-11-21T20:20:34;12.98;;;6.40;;
66575;SDS011;53428;47.686;16.584;2023-11-21T20:25:35;12.82;;;6.68;;
66575;SDS011;53428;47.686;16.584;2023-11-21T20:30:35;9.73;;;5.82;;
66575;SDS011;53428;47.686;16.584;2023-11-21T20:35:34;15.63;;;6.45;;
66575;SDS011;53428;47.686;16.584;2023-11-21T20:40:35;12.25;;;6.57;;
66575;SDS011;53428;47.686;16.584;2023-11-21T20:45:35;11.65;;;7.30;;
66575;SDS011;53428;47.686;16.584;2023-11-21T20:50:37;9.40;;;6.43;;
66575;SDS011;53428;47.686;16.584;2023-11-21T20:55:40;10.70;;;6.82;;
66575;SDS011;53428;47.686;16.584;2023-11-21T21:00:40;10.15;;;6.07;;
66575;SDS011;53428;47.686;16.584;2023-11-21T21:05:39;10.15;;;6.68;;
66575;SDS011;53428;47.686;16.584;2023-11-21T21:10:38;10.10;;;7.25;;
66575;SDS011;53428;47.686;16.584;2023-11-21T21:15:39;14.45;;;6.80;;
66575;SDS011;53428;47.686;16.584;2023-11-21T21:20:39;11.57;;;7.22;;
66575;SDS011;53428;47.686;16.584;2023-11-21T21:25:38;10.98;;;7.10;;
66575;SDS011;53428;47.686;16.584;2023-11-21T21:30:37;12.45;;;7.97;;
66575;SDS011;53428;47.686;16.584;2023-11-21T21:35:38;15.02;;;7.88;;
66575;SDS011;53428;47.686;16.584;2023-11-21T21:40:37;10.18;;;7.03;;
66575;SDS011;53428;47.686;16.584;2023-11-21T21:45:36;15.98;;;8.48;;
66575;SDS011;53428;47.686;16.584;2023-11-21T21:50:36;13.10;;;7.75;;
66575;SDS011;53428;47.686;16.584;2023-11-21T21:55:35;13.48;;;7.95;;
66575;SDS011;53428;47.686;16.584;2023-11-21T22:00:34;16.17;;;7.43;;
66575;SDS011;53428;47.686;16.584;2023-11-21T22:05:33;11.98;;;8.18;;
66575;SDS011;53428;47.686;16.584;2023-11-21T22:10:32;13.52;;;7.75;;
66575;SDS011;53428;47.686;16.584;2023-11-21T22:15:32;9.70;;;6.18;;
66575;SDS011;53428;47.686;16.584;2023-11-21T22:20:31;12.23;;;7.43;;
66575;SDS011;53428;47.686;16.584;2023-11-21T22:25:30;9.88;;;6.97;;
66575;SDS011;53428;47.686;16.584;2023-11-21T22:30:29;13.57;;;7.45;;
66575;SDS011;53428;47.686;16.584;2023-11-21T22:35:28;11.10;;;7.20;;
66575;SDS011;53428;47.686;16.584;2023-11-21T22:40:28;9.05;;;6.88;;
66575;SDS011;53428;47.686;16.584;2023-11-21T22:45:27;13.48;;;6.47;;
66575;SDS011;53428;47.686;16.584;2023-11-21T22:50:27;12.02;;;6.68;;
66575;SDS011;53428;47.686;16.584;2023-11-21T22:55:26;9.45;;;6.43;;
66575;SDS011;53428;47.686;16.584;2023-11-21T23:00:25;12.18;;;7.65;;
66575;SDS011;53428;47.686;16.584;2023-11-21T23:05:28;17.75;;;6.93;;
66575;SDS011;53428;47.686;16.584;2023-11-21T23:10:27;13.68;;;7.20;;
66575;SDS011;53428;47.686;16.584;2023-11-21T23:15:28;10.75;;;7.15;;
66575;SDS011;53428;47.686;16.584;2023-11-21T23:20:27;12.30;;;7.85;;
66575;SDS011;53428;47.686;16.584;2023-11-21T23:25:26;15.55;;;8.15;;
66575;SDS011;53428;47.686;16.584;2023-11-21T23:30:25;11.68;;;7.68;;
66575;SDS011;53428;47.686;16.584;2023-11-21T23:35:26;12.65;;;7.38;;
66575;SDS011;53428;47.686;16.584;2023-11-21T23:40:25;13.95;;;7.43;;
66575;SDS011;53428;47.686;16.584;2023-11-21T23:45:25;12.20;;;8.20;;
66575;SDS011;53428;47.686;16.584;2023-11-21T23:50:27;11.18;;;6.88;;
66575;SDS011;53428;47.686;16.584;2023-11-21T23:55:28;13.75;;;8.68;;
